Time;durP1;ratioP1;P1;durP2;ratioP2;P2;SDS_P1;SDS_P2;PMS_P1;PMS_P2;Temp;Humidity;BMP_temperature;BMP_pressure;BME280_temperature;BME280_humidity;BME280_pressure;Samples;Min_cycle;Max_cycle;Signal;HPM_P1;HPM_P2
2022/12/28 00:01:49;;;;;;;13.23;7.10;;;0.70;99.90;;;;;;5010679;28;20148;-71
2022/12/28 00:04:17;;;;;;;13.57;6.55;;;0.60;99.90;;;;;;5043228;28;20468;-70
2022/12/28 00:06:46;;;;;;;15.18;6.20;;;0.70;99.90;;;;;;5006426;28;20481;-70
2022/12/28 00:09:13;;;;;;;11.90;6.30;;;0.70;99.90;;;;;;5008184;28;20053;-69
2022/12/28 00:11:40;;;;;;;15.15;6.07;;;0.70;99.90;;;;;;5026008;28;20092;-70
2022/12/28 00:14:08;;;;;;;15.27;7.78;;;0.70;99.90;;;;;;5010476;28;20065;-70
2022/12/28 00:16:38;;;;;;;14.85;6.80;;;0.80;99.90;;;;;;5011565;28;20034;-70
2022/12/28 00:19:11;;;;;;;11.73;6.65;;;0.80;99.90;;;;;;5008983;28;20516;-72
2022/12/28 00:21:39;;;;;;;14.50;6.95;;;0.80;99.90;;;;;;4978409;28;20100;-70
2022/12/28 00:24:07;;;;;;;16.35;7.35;;;0.90;99.90;;;;;;5011400;28;20081;-72
2022/12/28 00:26:35;;;;;;;12.85;6.90;;;0.90;99.90;;;;;;5041598;28;20129;-72
2022/12/28 00:29:02;;;;;;;18.50;8.00;;;0.90;99.90;;;;;;5008326;28;20121;-72
2022/12/28 00:31:33;;;;;;;21.40;7.38;;;0.90;99.90;;;;;;5026317;28;20050;-69
2022/12/28 00:34:02;;;;;;;16.35;7.75;;;0.90;99.90;;;;;;5001732;28;20555;-72
2022/12/28 00:36:30;;;;;;;12.57;6.72;;;0.90;99.90;;;;;;5008030;28;20467;-71
2022/12/28 00:39:19;;;;;;;15.15;7.38;;;0.90;99.90;;;;;;4993222;28;20400;-70
2022/12/28 00:41:46;;;;;;;16.65;8.73;;;0.90;99.90;;;;;;5006536;28;20108;-70
2022/12/28 00:44:13;;;;;;;13.57;6.90;;;0.90;99.90;;;;;;5008539;28;20056;-70
2022/12/28 00:46:41;;;;;;;12.13;6.75;;;0.90;99.90;;;;;;5009565;28;21138;-70
2022/12/28 00:49:08;;;;;;;11.55;6.40;;;1.00;99.90;;;;;;5022764;28;20081;-71
2022/12/28 00:51:35;;;;;;;10.73;6.57;;;1.00;99.90;;;;;;5007952;28;20073;-70
2022/12/28 00:54:03;;;;;;;13.40;6.65;;;1.00;99.90;;;;;;5023720;28;20483;-71
2022/12/28 00:56:30;;;;;;;11.32;6.30;;;1.00;99.90;;;;;;5008627;28;20148;-70
2022/12/28 00:58:59;;;;;;;11.75;6.82;;;1.10;99.90;;;;;;5010935;28;20045;-71
2022/12/28 01:01:27;;;;;;;14.10;7.18;;;1.10;99.90;;;;;;5006517;28;20463;-71
2022/12/28 01:03:58;;;;;;;14.43;6.78;;;1.20;99.90;;;;;;5008089;28;20497;-72
2022/12/28 01:06:27;;;;;;;14.82;7.10;;;1.20;99.90;;;;;;5007631;28;20512;-72
2022/12/28 01:08:58;;;;;;;14.05;7.00;;;1.30;99.90;;;;;;5029915;28;20054;-70
2022/12/28 01:11:29;;;;;;;10.40;6.20;;;1.30;99.90;;;;;;5005032;28;20125;-72
2022/12/28 01:13:58;;;;;;;11.35;6.22;;;1.40;99.90;;;;;;5020852;28;20105;-72
2022/12/28 01:16:29;;;;;;;11.27;6.53;;;1.40;99.90;;;;;;4992358;28;20096;-69
2022/12/28 01:18:59;;;;;;;13.05;6.60;;;1.50;99.90;;;;;;5008360;28;20064;-70
2022/12/28 01:21:29;;;;;;;12.35;6.88;;;1.40;99.90;;;;;;5007217;28;20121;-70
2022/12/28 01:23:59;;;;;;;11.30;6.60;;;1.40;99.90;;;;;;5008872;28;20088;-70
2022/12/28 01:26:27;;;;;;;14.40;7.00;;;1.40;99.90;;;;;;5010539;28;20501;-71
2022/12/28 01:28:56;;;;;;;14.15;7.22;;;1.40;99.90;;;;;;5008716;28;21463;-71
2022/12/28 01:31:24;;;;;;;13.65;7.13;;;1.40;99.90;;;;;;5032021;28;20417;-71
2022/12/28 01:33:52;;;;;;;11.27;6.88;;;1.40;99.90;;;;;;5007707;28;20469;-71
2022/12/28 01:36:23;;;;;;;13.88;7.53;;;1.40;99.90;;;;;;5008034;28;20129;-70
2022/12/28 01:38:56;;;;;;;13.30;8.00;;;1.40;99.90;;;;;;5030718;28;20065;-71
2022/12/28 01:41:25;;;;;;;16.52;7.78;;;1.40;99.90;;;;;;5017744;28;20506;-70
2022/12/28 01:43:52;;;;;;;15.52;7.88;;;1.40;99.90;;;;;;5015391;28;20053;-72
2022/12/28 01:46:45;;;;;;;12.80;7.10;;;1.40;99.90;;;;;;5007938;28;20060;-71
2022/12/28 01:49:15;;;;;;;20.88;10.48;;;1.40;99.90;;;;;;5007780;28;20038;-70
2022/12/28 01:52:06;;;;;;;18.63;10.32;;;1.50;99.90;;;;;;5004531;28;20096;-71
2022/12/28 01:54:41;;;;;;;14.32;8.00;;;1.50;99.90;;;;;;5035350;28;20057;-71
2022/12/28 01:57:08;;;;;;;13.68;7.68;;;1.50;99.90;;;;;;5007129;28;20451;-70
2022/12/28 01:59:40;;;;;;;17.13;9.43;;;1.60;99.90;;;;;;5016840;28;20378;-71
2022/12/28 02:02:10;;;;;;;16.17;9.43;;;1.60;99.90;;;;;;4990920;28;20050;-71
2022/12/28 02:04:38;;;;;;;12.95;8.57;;;1.60;99.90;;;;;;4990384;28;20057;-71
2022/12/28 02:07:06;;;;;;;20.98;9.95;;;1.60;99.90;;;;;;5008717;28;20052;-78
2022/12/28 02:09:39;;;;;;;20.45;10.10;;;1.70;99.90;;;;;;4992054;28;20488;-70
2022/12/28 02:12:12;;;;;;;16.80;10.95;;;1.80;99.90;;;;;;4985503;28;20054;-78
2022/12/28 02:14:42;;;;;;;20.30;10.68;;;1.80;99.90;;;;;;5003310;28;20042;-70
2022/12/28 02:17:12;;;;;;;23.58;10.82;;;1.80;99.90;;;;;;5003426;28;20141;-69
2022/12/28 02:19:47;;;;;;;15.35;10.05;;;1.80;99.90;;;;;;5012540;28;20046;-70
2022/12/28 02:22:59;;;;;;;16.35;10.00;;;1.80;99.90;;;;;;5007466;28;20088;-70
2022/12/28 02:25:33;;;;;;;20.30;10.80;;;1.90;99.90;;;;;;5007223;28;20045;-69
2022/12/28 02:28:11;;;;;;;18.25;11.95;;;1.80;99.90;;;;;;5001593;28;20462;-70
2022/12/28 02:31:02;;;;;;;21.58;11.48;;;1.80;99.90;;;;;;5001685;28;20041;-70
2022/12/28 02:34:01;;;;;;;18.10;10.90;;;1.80;99.90;;;;;;5016621;28;20168;-70
2022/12/28 02:36:40;;;;;;;19.73;11.82;;;1.80;99.90;;;;;;5007722;28;20046;-70
2022/12/28 02:39:17;;;;;;;21.08;11.95;;;1.80;99.90;;;;;;5013336;28;20093;-70
2022/12/28 02:41:46;;;;;;;18.00;11.95;;;1.70;99.90;;;;;;5013876;28;20538;-70
2022/12/28 02:50:04;;;;;;;20.67;11.90;;;1.70;99.90;;;;;;5011731;28;20100;-69
2022/12/28 02:50:07;;;;;;;20.83;11.63;;;1.70;99.90;;;;;;4992797;28;20073;-70
2022/12/28 02:53:16;;;;;;;22.70;12.10;;;1.70;99.90;;;;;;5006177;28;20278;-70
2022/12/28 02:56:07;;;;;;;23.58;12.70;;;1.70;99.90;;;;;;5007207;28;20461;-70
2022/12/28 02:58:56;;;;;;;22.98;13.13;;;1.70;99.90;;;;;;5025995;28;20056;-71
2022/12/28 03:01:47;;;;;;;21.65;13.02;;;1.70;99.90;;;;;;5008580;28;20531;-71
2022/12/28 03:04:29;;;;;;;24.92;13.85;;;1.60;99.90;;;;;;4992039;28;20054;-70
2022/12/28 03:10:14;;;;;;;22.55;13.40;;;1.70;99.90;;;;;;5026395;28;20100;-70
2022/12/28 03:12:47;;;;;;;23.17;13.90;;;1.80;99.90;;;;;;4993223;28;20579;-70
2022/12/28 03:15:30;;;;;;;24.20;13.80;;;1.70;99.90;;;;;;5000806;28;20138;-70
2022/12/28 03:32:34;;;;;;;24.95;12.55;;;2.10;99.90;;;;;;4993779;28;20074;-71
2022/12/28 03:35:02;;;;;;;23.60;13.50;;;2.10;99.90;;;;;;5006355;28;20039;-71
2022/12/28 03:37:48;;;;;;;25.77;13.32;;;2.10;99.90;;;;;;5004739;28;20046;-71
2022/12/28 03:40:41;;;;;;;22.30;13.25;;;2.10;99.90;;;;;;5042771;28;20038;-70
2022/12/28 03:43:40;;;;;;;21.38;13.05;;;2.10;99.90;;;;;;4999817;28;20046;-70
2022/12/28 03:46:28;;;;;;;20.30;12.40;;;2.10;99.90;;;;;;5009544;28;20568;-77
2022/12/28 03:49:00;;;;;;;23.63;13.38;;;2.20;99.90;;;;;;5024902;28;20073;-70
2022/12/28 03:51:31;;;;;;;18.42;12.02;;;2.20;99.90;;;;;;5009179;28;20050;-73
2022/12/28 03:54:04;;;;;;;19.88;13.05;;;2.20;99.90;;;;;;5023151;28;20054;-70
2022/12/28 03:56:31;;;;;;;23.75;13.63;;;2.20;99.90;;;;;;4992839;28;20508;-71
2022/12/28 03:59:01;;;;;;;20.33;13.38;;;2.20;99.90;;;;;;5008855;28;20041;-71
2022/12/28 04:01:38;;;;;;;21.98;12.55;;;2.20;99.90;;;;;;4991464;28;20046;-70
2022/12/28 04:04:06;;;;;;;20.73;12.65;;;2.20;99.90;;;;;;5001789;28;20034;-71
2022/12/28 04:06:33;;;;;;;22.73;13.20;;;2.20;99.90;;;;;;5033504;28;20050;-70
2022/12/28 04:09:03;;;;;;;18.05;11.73;;;2.20;99.90;;;;;;5022187;28;20050;-70
2022/12/28 04:11:33;;;;;;;;;;;2.20;99.90;;;;;;5001031;28;20052;-71
2022/12/28 04:14:03;;;;;;;22.13;12.65;;;2.20;99.90;;;;;;5006653;28;20028;-70
2022/12/28 04:16:39;;;;;;;19.13;12.10;;;2.20;99.90;;;;;;5024798;28;20046;-71
2022/12/28 04:19:12;;;;;;;19.55;11.98;;;2.10;99.90;;;;;;4990069;28;20124;-71
2022/12/28 04:21:39;;;;;;;20.75;12.85;;;2.00;99.90;;;;;;4990499;28;20060;-70
2022/12/28 04:24:07;;;;;;;21.73;13.43;;;2.00;99.90;;;;;;5006251;28;20501;-70
2022/12/28 04:26:35;;;;;;;22.05;12.90;;;2.00;99.90;;;;;;5006983;28;20045;-70
2022/12/28 04:29:02;;;;;;;21.38;12.20;;;1.90;99.90;;;;;;5006437;28;20042;-71
2022/12/28 04:31:32;;;;;;;22.80;13.63;;;1.80;99.90;;;;;;4990668;28;20593;-71
2022/12/28 04:34:05;;;;;;;24.73;13.77;;;1.80;99.90;;;;;;5008854;28;20064;-70
2022/12/28 04:36:38;;;;;;;24.27;13.95;;;1.90;99.90;;;;;;4990861;28;20509;-70
2022/12/28 04:39:10;;;;;;;25.38;13.65;;;1.90;99.90;;;;;;4993503;28;20192;-70
2022/12/28 04:41:37;;;;;;;20.77;12.95;;;2.00;99.90;;;;;;5004153;28;20042;-70
2022/12/28 04:44:05;;;;;;;20.95;12.98;;;2.00;99.90;;;;;;5023334;28;20046;-70
2022/12/28 04:46:32;;;;;;;20.15;12.60;;;2.10;99.90;;;;;;5004477;28;20175;-71
2022/12/28 04:49:00;;;;;;;20.60;12.30;;;2.20;99.90;;;;;;5038516;28;20050;-71
2022/12/28 04:51:28;;;;;;;19.70;12.27;;;2.20;99.90;;;;;;5007428;28;20050;-71
2022/12/28 04:53:57;;;;;;;22.10;12.70;;;2.20;99.90;;;;;;4998159;28;20508;-70
2022/12/28 04:56:26;;;;;;;17.73;12.38;;;2.20;99.90;;;;;;4988071;28;20058;-71
2022/12/28 04:58:58;;;;;;;21.40;12.73;;;2.30;99.90;;;;;;5008747;28;20046;-71
2022/12/28 05:01:26;;;;;;;20.42;12.60;;;2.30;99.90;;;;;;4990285;28;20103;-71
2022/12/28 05:03:54;;;;;;;18.02;11.40;;;2.40;99.90;;;;;;5008563;28;20065;-71
2022/12/28 05:06:26;;;;;;;19.27;11.98;;;2.40;99.90;;;;;;5000108;28;20060;-70
2022/12/28 05:08:55;;;;;;;19.75;12.32;;;2.40;99.90;;;;;;5004582;28;20066;-71
2022/12/28 05:11:26;;;;;;;18.27;11.70;;;2.50;99.90;;;;;;5019162;28;20051;-68
2022/12/28 05:13:54;;;;;;;20.17;11.93;;;2.50;99.90;;;;;;5020548;28;20501;-71
2022/12/28 05:16:24;;;;;;;20.05;11.93;;;2.50;99.90;;;;;;5004783;28;20518;-69
2022/12/28 05:18:51;;;;;;;19.98;11.68;;;2.60;99.90;;;;;;4974892;28;20394;-76
2022/12/28 05:21:21;;;;;;;17.83;11.27;;;2.60;99.90;;;;;;5008286;28;20070;-71
2022/12/28 05:23:49;;;;;;;18.58;11.40;;;2.70;99.90;;;;;;4994826;28;20556;-71
2022/12/28 05:26:21;;;;;;;20.83;10.75;;;2.80;99.90;;;;;;5009810;28;20047;-70
2022/12/28 05:28:48;;;;;;;17.38;10.43;;;2.80;99.90;;;;;;5008220;28;20046;-71
2022/12/28 05:31:19;;;;;;;17.02;10.80;;;2.80;99.90;;;;;;5025147;28;20493;-69
2022/12/28 05:33:46;;;;;;;17.23;10.65;;;2.80;99.90;;;;;;4994793;28;20050;-69
2022/12/28 05:36:17;;;;;;;19.75;11.88;;;2.90;99.90;;;;;;5003119;28;20515;-70
2022/12/28 05:38:44;;;;;;;19.52;11.50;;;2.90;99.90;;;;;;5008796;28;20143;-76
2022/12/28 05:41:14;;;;;;;19.00;10.68;;;2.90;99.90;;;;;;5008050;28;20049;-70
2022/12/28 05:43:43;;;;;;;21.85;11.80;;;2.90;99.90;;;;;;4981627;28;20076;-70
2022/12/28 05:46:13;;;;;;;17.77;11.15;;;2.90;99.90;;;;;;5004068;28;20050;-72
2022/12/28 05:48:42;;;;;;;20.10;10.90;;;3.00;99.90;;;;;;5006612;28;20409;-70
2022/12/28 05:51:15;;;;;;;18.73;10.82;;;3.00;99.90;;;;;;5007371;28;20063;-70
2022/12/28 05:53:43;;;;;;;17.92;10.48;;;3.00;99.90;;;;;;5008754;28;20041;-76
2022/12/28 05:56:16;;;;;;;18.08;10.73;;;3.10;99.90;;;;;;5000493;28;20045;-70
2022/12/28 05:58:45;;;;;;;18.58;11.45;;;3.10;99.90;;;;;;5009562;28;20053;-70
2022/12/28 06:01:15;;;;;;;18.77;11.68;;;3.10;99.90;;;;;;5006844;28;20497;-75
2022/12/28 06:03:45;;;;;;;18.35;10.27;;;3.20;99.90;;;;;;5007060;28;20050;-70
2022/12/28 06:06:16;;;;;;;19.63;11.43;;;3.20;99.90;;;;;;5009771;28;20213;-69
2022/12/28 06:08:44;;;;;;;20.67;11.05;;;3.20;99.90;;;;;;5048413;28;20050;-69
2022/12/28 06:11:16;;;;;;;17.00;10.50;;;3.20;99.90;;;;;;4993166;28;20546;-76
2022/12/28 06:13:43;;;;;;;19.30;11.05;;;3.20;99.90;;;;;;4998994;28;20057;-73
2022/12/28 06:16:13;;;;;;;19.60;11.55;;;3.20;99.90;;;;;;4998772;28;20049;-72
2022/12/28 06:18:41;;;;;;;19.52;11.20;;;3.20;99.90;;;;;;5016120;28;20052;-74
2022/12/28 06:21:12;;;;;;;17.77;11.07;;;3.20;99.90;;;;;;5017959;28;20478;-74
2022/12/28 06:23:40;;;;;;;21.55;11.90;;;3.20;99.90;;;;;;5016347;28;20068;-75
2022/12/28 06:26:09;;;;;;;19.67;12.40;;;3.20;99.90;;;;;;5028916;28;20471;-73
2022/12/28 06:28:37;;;;;;;19.52;10.90;;;3.30;99.90;;;;;;5042944;28;20077;-74
2022/12/28 06:31:05;;;;;;;20.98;11.43;;;3.30;99.90;;;;;;4996611;28;20436;-75
2022/12/28 06:33:33;;;;;;;20.63;12.93;;;3.30;99.90;;;;;;5040483;28;20053;-73
2022/12/28 06:36:02;;;;;;;20.17;10.80;;;3.30;99.90;;;;;;5012627;28;20378;-75
2022/12/28 06:38:31;;;;;;;20.85;11.50;;;3.30;99.90;;;;;;4998712;28;20038;-75
2022/12/28 06:41:03;;;;;;;20.35;12.05;;;3.30;99.90;;;;;;4998412;28;20053;-73
2022/12/28 06:43:42;;;;;;;22.35;13.55;;;3.20;99.90;;;;;;5015235;28;20520;-75
2022/12/28 06:46:11;;;;;;;22.13;12.73;;;3.20;99.90;;;;;;5031374;28;20587;-73
2022/12/28 06:48:39;;;;;;;21.88;12.65;;;3.20;99.90;;;;;;4998233;28;20053;-75
2022/12/28 06:51:27;;;;;;;25.80;14.07;;;3.20;99.90;;;;;;5031652;28;20483;-73
2022/12/28 06:53:55;;;;;;;21.35;12.65;;;3.20;99.90;;;;;;5013657;28;20859;-73
2022/12/28 06:56:29;;;;;;;23.88;13.18;;;3.20;99.90;;;;;;5043653;28;20353;-75
2022/12/28 06:58:57;;;;;;;21.02;12.98;;;3.20;99.90;;;;;;5003788;28;20042;-73
2022/12/28 07:01:33;;;;;;;21.38;12.95;;;3.30;99.90;;;;;;4992805;28;20464;-74
2022/12/28 07:04:03;;;;;;;23.55;14.52;;;3.20;99.90;;;;;;4997982;28;20132;-76
2022/12/28 07:06:35;;;;;;;24.80;13.82;;;3.20;99.90;;;;;;4997994;28;20050;-73
2022/12/28 07:09:05;;;;;;;22.55;14.07;;;3.20;99.90;;;;;;5013064;28;20049;-74
2022/12/28 07:11:33;;;;;;;23.02;13.50;;;3.30;99.90;;;;;;5014030;28;20452;-73
2022/12/28 07:14:01;;;;;;;22.73;13.82;;;3.30;99.90;;;;;;4997965;28;20054;-73
2022/12/28 07:16:29;;;;;;;21.33;13.40;;;3.40;99.90;;;;;;5015571;28;20493;-73
2022/12/28 07:18:56;;;;;;;23.42;13.70;;;3.40;99.90;;;;;;5011372;28;20053;-73
2022/12/28 07:21:30;;;;;;;23.67;14.00;;;3.40;99.90;;;;;;5025686;28;20126;-76
2022/12/28 07:23:58;;;;;;;23.05;13.80;;;3.50;99.90;;;;;;5012809;28;20479;-73
2022/12/28 07:26:28;;;;;;;24.48;12.75;;;3.50;99.90;;;;;;5013423;28;20520;-76
2022/12/28 07:28:58;;;;;;;23.25;13.82;;;3.60;99.90;;;;;;5006629;28;20444;-76
2022/12/28 07:31:34;;;;;;;22.48;13.85;;;3.60;99.90;;;;;;4994063;28;20412;-74
2022/12/28 07:34:07;;;;;;;23.20;14.02;;;3.70;99.90;;;;;;4993286;28;20068;-72
2022/12/28 07:36:35;;;;;;;23.45;13.88;;;3.70;99.90;;;;;;5026591;28;20480;-75
2022/12/28 07:39:03;;;;;;;21.63;12.85;;;3.70;99.90;;;;;;5006490;28;20117;-76
2022/12/28 07:41:32;;;;;;;19.67;12.73;;;3.70;99.90;;;;;;5008436;28;20034;-75
2022/12/28 07:44:00;;;;;;;25.00;13.70;;;3.70;99.90;;;;;;4999200;28;20048;-72
2022/12/28 07:46:30;;;;;;;20.52;12.82;;;3.80;99.90;;;;;;5004914;28;20077;-74
2022/12/28 07:48:57;;;;;;;22.63;13.70;;;3.80;99.90;;;;;;5020764;28;20074;-76
2022/12/28 07:51:31;;;;;;;21.52;13.55;;;3.90;99.90;;;;;;5005848;28;20046;-73
2022/12/28 07:53:59;;;;;;;25.70;13.32;;;3.80;99.90;;;;;;5009040;28;20042;-74
2022/12/28 07:56:28;;;;;;;21.52;12.55;;;3.90;99.90;;;;;;4995201;28;20056;-75
2022/12/28 07:58:58;;;;;;;21.15;12.35;;;3.90;99.90;;;;;;4994554;28;20547;-76
2022/12/28 08:01:28;;;;;;;19.67;12.32;;;4.00;99.90;;;;;;5012109;28;20414;-74
2022/12/28 08:03:58;;;;;;;19.13;12.77;;;4.10;99.90;;;;;;5044061;28;20034;-74
2022/12/28 08:06:27;;;;;;;20.10;12.65;;;4.10;99.90;;;;;;5010725;28;20054;-74
2022/12/28 08:08:58;;;;;;;22.33;12.82;;;4.10;99.90;;;;;;4991755;28;20105;-74
2022/12/28 08:11:28;;;;;;;21.00;12.90;;;4.10;99.90;;;;;;5017180;28;20482;-77
2022/12/28 08:13:57;;;;;;;20.33;12.50;;;4.20;99.90;;;;;;5024186;28;20116;-72
2022/12/28 08:16:27;;;;;;;22.17;11.77;;;4.20;99.90;;;;;;5012738;28;20509;-76
2022/12/28 08:18:54;;;;;;;20.08;12.45;;;4.30;99.90;;;;;;4992401;28;20045;-74
2022/12/28 08:21:27;;;;;;;23.67;13.70;;;4.30;99.90;;;;;;5010191;28;20515;-76
2022/12/28 08:23:54;;;;;;;;;;;4.50;99.90;;;;;;5008770;28;20050;-76
2022/12/28 08:26:28;;;;;;;17.25;11.02;;;4.60;99.90;;;;;;5007727;28;19984;-76
2022/12/28 08:28:59;;;;;;;18.75;11.23;;;4.60;99.90;;;;;;4992925;28;20100;-73
2022/12/28 08:31:32;;;;;;;18.92;11.82;;;4.60;99.90;;;;;;4992775;28;20052;-72
2022/12/28 08:34:01;;;;;;;19.75;11.82;;;4.70;99.90;;;;;;5007854;28;20049;-75
2022/12/28 08:36:29;;;;;;;19.23;11.23;;;4.70;99.90;;;;;;5008351;28;20060;-76
2022/12/28 08:38:57;;;;;;;18.95;11.23;;;4.80;99.90;;;;;;4997664;28;20042;-73
2022/12/28 08:41:26;;;;;;;21.13;12.98;;;4.90;99.90;;;;;;4988074;28;20491;-74
2022/12/28 08:43:54;;;;;;;19.27;12.45;;;4.90;99.90;;;;;;5041842;28;20140;-73
2022/12/28 08:46:29;;;;;;;17.13;10.60;;;5.00;99.90;;;;;;5025332;28;20472;-72
2022/12/28 08:48:59;;;;;;;15.88;10.35;;;5.10;99.90;;;;;;5009342;28;20042;-76
2022/12/28 08:51:31;;;;;;;13.88;9.70;;;5.20;99.90;;;;;;4989697;28;20137;-74
2022/12/28 08:53:59;;;;;;;16.05;10.80;;;5.30;99.90;;;;;;5018131;28;20150;-74
2022/12/28 08:56:29;;;;;;;20.45;10.82;;;5.40;99.90;;;;;;5009791;28;20065;-74
2022/12/28 08:58:57;;;;;;;17.52;10.15;;;5.40;99.90;;;;;;5010343;28;20082;-74
2022/12/28 09:01:30;;;;;;;17.08;9.43;;;5.50;99.90;;;;;;5005165;28;20124;-74
2022/12/28 09:04:02;;;;;;;16.15;10.20;;;5.50;99.90;;;;;;5002833;28;20472;-74
2022/12/28 09:06:35;;;;;;;17.02;10.00;;;5.60;99.90;;;;;;5005413;28;20455;-74
2022/12/28 09:09:05;;;;;;;14.27;9.75;;;5.60;99.90;;;;;;5005267;28;20065;-73
2022/12/28 09:11:35;;;;;;;14.95;9.55;;;5.70;99.90;;;;;;5005230;28;20116;-73
2022/12/28 09:14:05;;;;;;;14.77;9.13;;;5.80;99.90;;;;;;5006495;28;20117;-76
2022/12/28 09:16:32;;;;;;;16.10;10.02;;;5.90;99.90;;;;;;5008595;28;20049;-76
2022/12/28 09:19:02;;;;;;;15.82;8.90;;;5.90;99.90;;;;;;5024446;28;20069;-75
2022/12/28 09:21:33;;;;;;;17.65;10.40;;;6.00;99.90;;;;;;5009717;28;20076;-75
2022/12/28 09:24:01;;;;;;;16.30;9.70;;;6.00;99.90;;;;;;5006612;28;20058;-74
2022/12/28 09:26:31;;;;;;;19.13;10.43;;;6.00;99.90;;;;;;5002458;28;20057;-76
2022/12/28 09:29:00;;;;;;;16.42;9.55;;;6.10;99.90;;;;;;5009410;28;20045;-75
2022/12/28 09:31:31;;;;;;;16.02;9.35;;;6.10;99.90;;;;;;5008329;28;20096;-73
2022/12/28 09:34:01;;;;;;;16.92;9.70;;;6.00;99.90;;;;;;5010147;28;20290;-73
2022/12/28 09:36:50;;;;;;;15.50;9.87;;;6.10;99.90;;;;;;5008692;28;20073;-73
2022/12/28 09:39:19;;;;;;;13.90;8.55;;;6.10;99.90;;;;;;5030318;28;20335;-76
2022/12/28 09:42:03;;;;;;;14.45;9.00;;;6.20;99.90;;;;;;5006313;28;20037;-75
2022/12/28 09:44:59;;;;;;;13.68;9.30;;;6.20;99.90;;;;;;4987332;28;20405;-74
2022/12/28 09:47:50;;;;;;;14.95;9.10;;;6.30;99.90;;;;;;5018514;28;20513;-75
2022/12/28 09:50:18;;;;;;;14.30;8.75;;;6.30;99.90;;;;;;5003599;28;20042;-76
2022/12/28 09:53:22;;;;;;;13.88;8.75;;;6.30;99.90;;;;;;5002486;28;20107;-76
2022/12/28 09:56:15;;;;;;;16.25;9.10;;;6.40;99.90;;;;;;4987909;28;20066;-74
2022/12/28 09:58:43;;;;;;;13.73;7.80;;;6.50;99.90;;;;;;4989314;28;20038;-76
2022/12/28 10:01:15;;;;;;;14.43;7.97;;;6.60;99.90;;;;;;5004284;28;20365;-77
2022/12/28 10:03:46;;;;;;;11.60;7.47;;;6.60;99.90;;;;;;4987337;28;20057;-77
2022/12/28 10:06:23;;;;;;;14.05;8.52;;;6.70;99.90;;;;;;5005284;28;20455;-74
2022/12/28 10:08:53;;;;;;;15.52;8.55;;;6.70;99.90;;;;;;5003609;28;20042;-75
2022/12/28 10:11:25;;;;;;;10.82;7.03;;;6.70;99.90;;;;;;5003684;28;20073;-76
2022/12/28 10:13:59;;;;;;;11.48;7.43;;;6.70;99.90;;;;;;5004688;28;20508;-75
2022/12/28 10:16:31;;;;;;;12.98;8.18;;;6.90;99.90;;;;;;5007834;28;20046;-76
2022/12/28 10:18:59;;;;;;;13.48;7.95;;;6.80;99.90;;;;;;4992628;28;20055;-74
2022/12/28 10:21:30;;;;;;;11.45;7.28;;;6.80;99.90;;;;;;5022074;28;20054;-76
2022/12/28 10:24:04;;;;;;;14.77;7.63;;;6.80;99.90;;;;;;5020716;28;20493;-75
2022/12/28 10:26:52;;;;;;;12.15;7.15;;;6.90;99.90;;;;;;5007423;28;20057;-78
2022/12/28 10:29:22;;;;;;;12.32;7.22;;;6.90;99.90;;;;;;4991226;28;20495;-75
2022/12/28 10:32:00;;;;;;;12.35;7.00;;;6.90;99.90;;;;;;4999870;28;20401;-76
2022/12/28 10:34:30;;;;;;;11.32;7.32;;;7.00;99.90;;;;;;5007000;28;20053;-75
2022/12/28 10:37:11;;;;;;;12.63;7.68;;;7.10;99.90;;;;;;5004384;28;20645;-78
2022/12/28 10:40:10;;;;;;;11.77;7.05;;;7.30;99.90;;;;;;5005192;28;20452;-77
2022/12/28 10:42:45;;;;;;;9.88;6.78;;;7.60;99.90;;;;;;4996079;28;20089;-76
2022/12/28 10:45:17;;;;;;;14.65;9.00;;;7.90;99.90;;;;;;5018445;28;20568;-75
2022/12/28 10:47:50;;;;;;;10.25;6.60;;;8.30;99.90;;;;;;5004659;28;20500;-77
2022/12/28 10:50:41;;;;;;;11.38;6.80;;;8.80;99.90;;;;;;5022815;28;20117;-77
2022/12/28 10:53:23;;;;;;;12.60;6.97;;;8.90;99.90;;;;;;5019559;28;20050;-76
2022/12/28 10:56:01;;;;;;;10.35;6.40;;;8.70;99.90;;;;;;4981371;28;20050;-75
2022/12/28 10:58:28;;;;;;;13.55;6.90;;;8.40;99.90;;;;;;5007007;28;20480;-75
2022/12/28 11:01:03;;;;;;;10.85;6.90;;;8.40;99.90;;;;;;5011545;28;20141;-73
2022/12/28 11:03:36;;;;;;;11.57;7.28;;;8.30;99.90;;;;;;5012713;28;20116;-75
2022/12/28 11:06:11;;;;;;;8.80;6.38;;;8.20;99.90;;;;;;5010340;28;20045;-77
2022/12/28 11:08:39;;;;;;;11.43;6.88;;;8.30;99.90;;;;;;5009888;28;20805;-75
2022/12/28 11:11:17;;;;;;;11.20;6.05;;;8.40;99.90;;;;;;5010863;28;20451;-74
2022/12/28 11:13:48;;;;;;;14.60;6.80;;;8.40;99.90;;;;;;5010981;28;20041;-76
2022/12/28 11:16:16;;;;;;;;;;;8.60;99.90;;;;;;4995805;28;20861;-76
2022/12/28 11:18:43;;;;;;;12.07;6.68;;;8.80;99.90;;;;;;5010505;28;19932;-75
2022/12/28 11:21:18;;;;;;;10.20;5.90;;;8.90;99.90;;;;;;5008177;28;20046;-76
2022/12/28 11:23:48;;;;;;;8.18;5.88;;;9.10;99.90;;;;;;5011443;28;20042;-77
2022/12/28 11:26:16;;;;;;;9.90;5.63;;;9.30;99.90;;;;;;5020318;28;20116;-74
2022/12/28 11:28:47;;;;;;;9.75;6.22;;;9.30;99.90;;;;;;5036336;28;20046;-74
2022/12/28 11:31:24;;;;;;;15.13;5.97;;;9.40;99.90;;;;;;5007056;28;20572;-76
2022/12/28 11:33:57;;;;;;;9.00;5.80;;;9.80;99.90;;;;;;5022591;28;20160;-73
2022/12/28 11:36:26;;;;;;;9.55;6.05;;;10.00;99.90;;;;;;5009948;28;20053;-75
2022/12/28 11:38:55;;;;;;;11.68;6.53;;;9.90;99.90;;;;;;5043063;28;20496;-72
2022/12/28 11:41:22;;;;;;;10.15;5.68;;;9.90;99.90;;;;;;5011220;28;20057;-74
2022/12/28 11:44:03;;;;;;;10.18;5.90;;;9.80;99.90;;;;;;5004422;28;20452;-77
2022/12/28 11:46:30;;;;;;;10.05;6.03;;;9.70;99.90;;;;;;5026884;28;20042;-76
2022/12/28 11:49:03;;;;;;;10.52;5.57;;;9.70;99.90;;;;;;5011478;28;20046;-75
2022/12/28 11:51:32;;;;;;;9.80;5.82;;;9.40;99.90;;;;;;5018360;28;20054;-74
2022/12/28 11:54:02;;;;;;;8.85;5.88;;;9.20;99.90;;;;;;5012017;28;20360;-75
2022/12/28 11:56:45;;;;;;;9.05;6.40;;;9.20;99.90;;;;;;5026468;28;20519;-73
2022/12/28 11:59:27;;;;;;;12.00;6.30;;;9.00;99.90;;;;;;5005057;28;20041;-73
2022/12/28 12:02:04;;;;;;;9.25;5.60;;;9.10;99.90;;;;;;4991701;28;20054;-73
2022/12/28 12:04:36;;;;;;;9.88;5.05;;;9.10;99.90;;;;;;5008600;28;20056;-75
2022/12/28 12:07:04;;;;;;;9.13;4.43;;;9.00;99.90;;;;;;5025460;28;20049;-78
2022/12/28 12:09:33;;;;;;;7.82;4.47;;;9.10;99.90;;;;;;4987817;28;20156;-75
2022/12/28 12:12:22;;;;;;;6.60;4.43;;;9.10;99.90;;;;;;4998768;28;20452;-76
2022/12/28 12:15:09;;;;;;;10.18;4.82;;;9.00;99.90;;;;;;5031362;28;20054;-73
2022/12/28 12:18:13;;;;;;;8.52;5.32;;;9.20;99.90;;;;;;4998199;28;20052;-74
2022/12/28 12:20:51;;;;;;;7.43;4.35;;;9.30;99.90;;;;;;4998876;28;20050;-73
2022/12/28 12:23:29;;;;;;;8.63;4.55;;;9.40;99.90;;;;;;4999243;28;20160;-74
2022/12/28 12:25:59;;;;;;;9.60;4.00;;;9.40;99.90;;;;;;5001509;28;20114;-73
2022/12/28 12:28:34;;;;;;;6.07;4.10;;;9.50;99.90;;;;;;5002796;28;20710;-74
2022/12/28 12:31:06;;;;;;;9.23;4.60;;;9.50;99.90;;;;;;5002589;28;20037;-75
2022/12/28 12:33:34;;;;;;;;;;;9.70;99.90;;;;;;5019092;28;20050;-76
2022/12/28 12:36:30;;;;;;;9.68;4.70;;;10.00;99.90;;;;;;5030741;28;20299;-75
2022/12/28 12:39:07;;;;;;;7.15;4.00;;;10.60;99.90;;;;;;4993500;28;20034;-73
2022/12/28 12:41:52;;;;;;;6.97;3.75;;;11.50;99.90;;;;;;5002635;28;20125;-75
2022/12/28 12:44:34;;;;;;;6.25;4.30;;;12.80;99.90;;;;;;4983822;28;20560;-74
2022/12/28 12:47:37;;;;;;;9.07;4.03;;;13.70;99.90;;;;;;5020982;28;20129;-74
2022/12/28 12:50:49;;;;;;;5.93;4.05;;;14.70;99.90;;;;;;4988153;28;20050;-76
2022/12/28 12:53:58;;;;;;;5.47;3.70;;;15.00;99.90;;;;;;4996711;28;20420;-73
2022/12/28 12:56:47;;;;;;;5.78;3.53;;;15.40;99.90;;;;;;4962962;28;20760;-74
2022/12/28 12:59:38;;;;;;;9.05;4.55;;;15.90;99.90;;;;;;4963790;28;20057;-74
2022/12/28 13:02:14;;;;;;;6.35;4.30;;;15.90;99.90;;;;;;4984144;28;20513;-76
2022/12/28 13:04:44;;;;;;;8.48;4.88;;;14.50;99.90;;;;;;4991995;28;20069;-78
2022/12/28 13:07:22;;;;;;;7.10;4.40;;;13.50;99.90;;;;;;4984082;28;20046;-74
2022/12/28 13:09:54;;;;;;;7.40;4.43;;;12.80;99.90;;;;;;4998078;28;20047;-77
2022/12/28 13:12:23;;;;;;;5.78;4.40;;;12.50;99.90;;;;;;4990259;28;20054;-76
2022/12/28 13:15:01;;;;;;;6.65;4.25;;;12.30;99.90;;;;;;4983847;28;20494;-75
2022/12/28 13:17:36;;;;;;;5.55;3.97;;;12.40;99.90;;;;;;4989160;28;20050;-74
2022/12/28 13:20:09;;;;;;;6.63;3.95;;;12.40;99.90;;;;;;4983975;28;20050;-73
2022/12/28 13:22:44;;;;;;;6.57;4.00;;;12.60;99.90;;;;;;4985608;28;20099;-74
2022/12/28 13:25:28;;;;;;;6.05;4.53;;;12.80;99.90;;;;;;4988711;28;20057;-74
2022/12/28 13:27:57;;;;;;;6.63;4.13;;;12.30;99.90;;;;;;4993699;28;20473;-75
2022/12/28 13:30:27;;;;;;;11.55;4.90;;;11.90;99.90;;;;;;5010447;28;20050;-73
2022/12/28 13:32:59;;;;;;;9.07;4.63;;;11.50;99.90;;;;;;5004262;28;20049;-74
2022/12/28 13:35:30;;;;;;;6.75;4.60;;;11.30;99.90;;;;;;5003560;28;20061;-74